Time;durP1;ratioP1;P1;durP2;ratioP2;P2;SDS_P1;SDS_P2;PMS_P1;PMS_P2;Temp;Humidity;BMP_temperature;BMP_pressure;BME280_temperature;BME280_humidity;BME280_pressure;Samples;Min_cycle;Max_cycle;Signal;HPM_P1;HPM_P2
2022/02/09 00:01:20;;;;;;;6.40;3.80;;;8.00;99.90;;;;;;5018162;28;20408;-74
2022/02/09 00:04:14;;;;;;;4.60;4.03;;;7.90;99.90;;;;;;5009530;28;20550;-74
2022/02/09 00:07:08;;;;;;;5.53;4.10;;;7.90;99.90;;;;;;5020848;28;20563;-75
2022/02/09 00:09:54;;;;;;;5.80;4.43;;;7.90;99.90;;;;;;5018008;28;20412;-74
2022/02/09 00:12:45;;;;;;;9.00;4.43;;;7.90;99.90;;;;;;5004667;28;20502;-74
2022/02/09 00:15:37;;;;;;;7.40;4.57;;;8.00;99.90;;;;;;5015824;28;20536;-73
2022/02/09 00:18:32;;;;;;;6.00;4.40;;;7.90;99.90;;;;;;5024033;28;20398;-74
2022/02/09 00:24:45;;;;;;;4.57;4.00;;;8.00;99.90;;;;;;5013622;28;20433;-74
2022/02/09 00:27:59;;;;;;;10.23;5.03;;;7.90;99.90;;;;;;5017406;28;20475;-75
2022/02/09 00:34:18;;;;;;;10.80;4.40;;;8.00;99.90;;;;;;5006809;28;20856;-74
2022/02/09 00:40:51;;;;;;;6.30;5.20;;;8.00;99.90;;;;;;5007754;28;20501;-74
2022/02/09 00:43:59;;;;;;;5.47;4.50;;;8.00;99.90;;;;;;5006484;28;20584;-74
2022/02/09 01:12:04;;;;;;;7.57;4.90;;;8.20;99.90;;;;;;4958894;28;20471;-74
2022/02/09 01:38:01;;;;;;;5.33;4.37;;;8.10;99.90;;;;;;5003986;28;20819;-74
2022/02/09 01:39:39;;;;;;;5.20;4.70;;;8.10;99.90;;;;;;5010189;28;20444;-74
2022/02/09 01:57:46;;;;;;;5.73;4.43;;;8.20;99.90;;;;;;5021986;28;20419;-74
2022/02/09 02:00:31;;;;;;;7.53;5.60;;;8.20;99.90;;;;;;5020764;28;20424;-74
2022/02/09 02:03:17;;;;;;;12.80;5.27;;;8.10;99.90;;;;;;5010482;28;20429;-74
2022/02/09 02:06:03;;;;;;;6.70;4.90;;;8.10;99.90;;;;;;5014983;28;20529;-73
2022/02/09 02:08:51;;;;;;;7.63;5.07;;;8.00;99.90;;;;;;5020960;28;20997;-74
2022/02/09 02:11:44;;;;;;;6.37;4.80;;;8.00;99.90;;;;;;5008846;28;20419;-74
2022/02/09 02:14:37;;;;;;;6.00;4.77;;;8.00;99.90;;;;;;5021757;28;20410;-74
2022/02/09 02:17:29;;;;;;;9.97;5.13;;;8.00;99.90;;;;;;5022924;28;21099;-74
2022/02/09 02:20:28;;;;;;;10.17;5.67;;;8.00;99.90;;;;;;5014849;28;20433;-75
2022/02/09 02:23:33;;;;;;;9.00;5.43;;;8.00;99.90;;;;;;5010289;28;20794;-75
2022/02/09 02:26:35;;;;;;;7.20;4.67;;;8.00;99.90;;;;;;5013278;28;20967;-74
2022/02/09 02:32:46;;;;;;;7.33;5.20;;;8.00;99.90;;;;;;5013684;28;20479;-74
2022/02/09 03:09:53;;;;;;;7.17;4.33;;;7.90;99.90;;;;;;5020205;28;20436;-74
2022/02/09 03:12:43;;;;;;;6.20;4.30;;;7.90;99.90;;;;;;5003278;28;20428;-75
2022/02/09 03:15:35;;;;;;;7.47;4.50;;;7.90;99.90;;;;;;5004771;28;20456;-74
2022/02/09 03:18:59;;;;;;;7.73;4.40;;;7.90;99.90;;;;;;5012618;28;20540;-74
2022/02/09 03:21:50;;;;;;;8.60;5.00;;;7.90;99.90;;;;;;5015437;28;20814;-75
2022/02/09 03:24:54;;;;;;;7.00;4.50;;;7.90;99.90;;;;;;5010966;28;20425;-74
2022/02/09 03:30:52;;;;;;;5.93;3.97;;;7.90;99.90;;;;;;5012594;28;20453;-75
2022/02/09 03:31:26;;;;;;;5.53;4.47;;;7.90;99.90;;;;;;5009318;28;20416;-74
2022/02/09 03:46:36;;;;;;;5.00;4.07;;;7.90;99.90;;;;;;5016416;28;20489;-74
2022/02/09 03:49:36;;;;;;;7.70;4.17;;;7.90;99.90;;;;;;5025076;28;20424;-74
2022/02/09 03:52:47;;;;;;;15.10;3.90;;;7.90;99.90;;;;;;5013624;28;20492;-74
2022/02/09 03:55:48;;;;;;;6.63;4.40;;;7.80;99.90;;;;;;5014205;28;20444;-74
2022/02/09 03:58:33;;;;;;;5.20;3.83;;;7.80;99.90;;;;;;5019299;28;20582;-74
2022/02/09 04:01:20;;;;;;;10.00;3.80;;;7.80;99.90;;;;;;5016067;28;20564;-74
2022/02/09 04:04:06;;;;;;;8.07;4.40;;;7.80;99.90;;;;;;5011204;28;20422;-74
2022/02/09 04:06:52;;;;;;;9.10;3.50;;;7.80;99.90;;;;;;5019785;28;21012;-75
2022/02/09 04:09:43;;;;;;;6.90;4.13;;;7.80;99.90;;;;;;5022608;28;20471;-74
2022/02/09 04:12:41;;;;;;;6.37;4.17;;;7.70;99.90;;;;;;5012575;28;20513;-74
2022/02/09 04:15:41;;;;;;;14.13;4.30;;;7.80;99.90;;;;;;5020173;28;20568;-74
2022/02/09 04:36:53;;;;;;;6.10;4.20;;;8.00;99.90;;;;;;5011100;28;20541;-75
2022/02/09 04:39:47;;;;;;;4.80;2.90;;;8.00;99.90;;;;;;5012659;28;20436;-75
2022/02/09 04:43:04;;;;;;;4.73;3.33;;;8.00;99.90;;;;;;5025684;28;20399;-74
2022/02/09 04:46:14;;;;;;;4.20;3.57;;;8.00;99.90;;;;;;5043995;22;20467;-71
2022/02/09 04:49:10;;;;;;;7.20;3.23;;;8.10;99.90;;;;;;5091011;28;20433;-72
2022/02/09 04:52:13;;;;;;;4.93;3.30;;;8.10;99.90;;;;;;5076934;28;20527;-69
2022/02/09 04:55:11;;;;;;;6.10;3.30;;;8.10;99.90;;;;;;5077281;28;20426;-71
2022/02/09 04:58:06;;;;;;;4.37;3.10;;;8.10;99.90;;;;;;5084498;28;20415;-69
2022/02/09 05:00:59;;;;;;;4.63;3.53;;;8.10;99.90;;;;;;5065327;28;20561;-71
2022/02/09 05:04:08;;;;;;;7.33;3.30;;;8.20;99.90;;;;;;5084026;28;20426;-71
2022/02/09 05:22:30;;;;;;;3.13;2.53;;;8.10;99.90;;;;;;5061953;28;20439;-71
2022/02/09 05:25:40;;;;;;;4.33;3.13;;;8.10;99.90;;;;;;5087257;28;20428;-71
2022/02/09 05:28:27;;;;;;;5.70;2.80;;;8.10;99.90;;;;;;5066529;28;20483;-71
2022/02/09 05:31:13;;;;;;;4.60;3.00;;;8.10;99.90;;;;;;5073057;28;20999;-71
2022/02/09 05:33:59;;;;;;;7.60;3.53;;;8.10;99.90;;;;;;5082643;28;20542;-71
2022/02/09 05:36:44;;;;;;;7.47;3.20;;;8.10;99.90;;;;;;5085439;28;20505;-69
2022/02/09 05:39:30;;;;;;;3.43;2.77;;;8.10;99.90;;;;;;5075044;28;20441;-71
2022/02/09 05:42:15;;;;;;;4.33;2.93;;;8.10;99.90;;;;;;5075512;28;20771;-71
2022/02/09 05:45:07;;;;;;;7.47;3.00;;;8.10;99.90;;;;;;5087849;28;20407;-71
2022/02/09 05:51:00;;;;;;;5.90;4.80;;;8.00;99.90;;;;;;5067731;28;20466;-71
2022/02/09 05:53:59;;;;;;;5.27;3.70;;;8.00;99.90;;;;;;5075104;28;20389;-71
2022/02/09 05:56:48;;;;;;;3.67;2.80;;;8.00;99.90;;;;;;5089142;28;21058;-72
2022/02/09 05:59:34;;;;;;;3.90;2.77;;;8.00;99.90;;;;;;5060213;28;20584;-71
2022/02/09 06:02:21;;;;;;;4.23;3.10;;;7.90;99.90;;;;;;5078522;28;20430;-71
2022/02/09 06:05:07;;;;;;;5.87;3.40;;;7.90;99.90;;;;;;5079177;28;20433;-71
2022/02/09 06:07:53;;;;;;;6.10;4.33;;;7.90;99.90;;;;;;5076379;28;20488;-72
2022/02/09 06:10:40;;;;;;;5.47;3.90;;;8.00;99.90;;;;;;5066271;28;20423;-70
2022/02/09 06:13:42;;;;;;;6.50;3.23;;;8.00;99.90;;;;;;5086044;28;20757;-71
2022/02/09 06:19:46;;;;;;;3.70;3.30;;;8.00;99.90;;;;;;5066941;28;20496;-70
2022/02/09 06:22:32;;;;;;;5.77;3.30;;;8.00;99.90;;;;;;5085044;28;20964;-71
2022/02/09 06:25:17;;;;;;;3.80;3.13;;;8.00;99.90;;;;;;5087389;28;20425;-71
2022/02/09 06:28:03;;;;;;;5.77;3.23;;;8.00;99.90;;;;;;5081268;28;20622;-71
2022/02/09 06:30:49;;;;;;;4.00;2.97;;;8.00;99.90;;;;;;5074103;28;20986;-72
2022/02/09 06:33:34;;;;;;;4.20;3.20;;;8.00;99.90;;;;;;5083328;28;20945;-72
2022/02/09 06:36:24;;;;;;;5.80;3.50;;;8.00;99.90;;;;;;5082738;28;20461;-71
2022/02/09 06:39:11;;;;;;;7.70;3.80;;;7.90;99.90;;;;;;5066021;28;20453;-70
2022/02/09 06:41:59;;;;;;;4.23;3.77;;;7.90;99.90;;;;;;5076903;28;20424;-72
2022/02/09 06:44:44;;;;;;;4.90;3.73;;;7.90;99.90;;;;;;5083218;28;20907;-71
2022/02/09 06:47:30;;;;;;;8.80;3.90;;;7.90;99.90;;;;;;5086300;28;20488;-70
2022/02/09 06:50:22;;;;;;;5.90;4.20;;;8.00;99.90;;;;;;5072575;28;20942;-71
2022/02/09 06:53:25;;;;;;;21.87;6.33;;;8.00;99.90;;;;;;5076822;28;20428;-72
2022/02/09 06:56:13;;;;;;;8.53;4.67;;;8.00;99.90;;;;;;5070723;28;20536;-69
2022/02/09 06:59:11;;;;;;;7.80;4.67;;;8.00;99.90;;;;;;5067819;28;20807;-71
2022/02/09 07:01:57;;;;;;;4.77;4.23;;;8.00;99.90;;;;;;5076123;28;20814;-71
2022/02/09 07:04:45;;;;;;;5.10;3.93;;;8.10;99.90;;;;;;5080483;28;20445;-69
2022/02/09 07:07:30;;;;;;;8.53;4.63;;;8.10;99.90;;;;;;5082762;28;20473;-67
2022/02/09 07:10:17;;;;;;;5.80;3.93;;;8.00;99.90;;;;;;5082000;28;20503;-71
2022/02/09 07:13:03;;;;;;;7.43;5.10;;;8.10;99.90;;;;;;5080072;28;20781;-71
2022/02/09 07:15:52;;;;;;;6.87;5.00;;;8.10;99.90;;;;;;5074855;28;20552;-70
2022/02/09 07:18:38;;;;;;;10.93;6.10;;;8.00;99.90;;;;;;5078705;28;20438;-71
2022/02/09 07:21:27;;;;;;;6.60;5.60;;;8.10;99.90;;;;;;5082847;28;20430;-71
2022/02/09 07:24:15;;;;;;;12.83;5.33;;;8.20;99.90;;;;;;5086091;28;20388;-71
2022/02/09 07:27:24;;;;;;;5.50;4.50;;;8.20;99.90;;;;;;5091321;28;20457;-72
2022/02/09 07:30:11;;;;;;;6.80;4.77;;;8.20;99.90;;;;;;5078682;28;20428;-71
2022/02/09 07:32:58;;;;;;;4.83;4.30;;;8.20;99.90;;;;;;5088284;28;20458;-71
2022/02/09 07:35:43;;;;;;;6.73;4.93;;;8.20;99.90;;;;;;5069077;28;20972;-70
2022/02/09 07:38:29;;;;;;;5.87;4.80;;;8.20;99.90;;;;;;5078787;28;20499;-71
2022/02/09 07:41:15;;;;;;;7.80;5.30;;;8.20;99.90;;;;;;5086939;28;20461;-71
2022/02/09 07:44:15;;;;;;;16.73;6.30;;;8.30;99.90;;;;;;5078522;28;20429;-72
2022/02/09 07:47:22;;;;;;;6.57;5.30;;;8.30;99.90;;;;;;5076712;28;20616;-71
2022/02/09 07:53:14;;;;;;;9.67;5.47;;;8.30;99.90;;;;;;5083210;28;20452;-71
2022/02/09 07:55:59;;;;;;;7.93;5.70;;;8.40;99.90;;;;;;5087091;28;20445;-70
2022/02/09 07:58:46;;;;;;;12.17;7.43;;;8.50;99.90;;;;;;5068612;28;20674;-72
2022/02/09 08:01:32;;;;;;;13.00;5.90;;;8.50;99.90;;;;;;5075443;28;20419;-70
2022/02/09 08:04:19;;;;;;;9.17;5.87;;;8.50;99.90;;;;;;5090657;28;20957;-71
2022/02/09 08:07:05;;;;;;;8.57;5.50;;;8.50;99.90;;;;;;5082065;28;20452;-69
2022/02/09 08:09:50;;;;;;;8.00;5.90;;;8.50;99.90;;;;;;5077380;28;20944;-70
2022/02/09 08:12:54;;;;;;;12.00;7.37;;;8.60;99.90;;;;;;5089136;28;20649;-70
2022/02/09 08:28:32;;;;;;;12.80;7.13;;;8.70;99.90;;;;;;5067254;28;21091;-72
2022/02/09 08:31:45;;;;;;;13.10;7.43;;;8.70;99.90;;;;;;5077366;28;20576;-71
2022/02/09 08:34:32;;;;;;;13.53;8.07;;;8.80;99.90;;;;;;5088439;28;20478;-72
2022/02/09 08:37:18;;;;;;;15.10;8.00;;;8.70;99.90;;;;;;5074903;28;20481;-72
2022/02/09 08:40:04;;;;;;;13.70;8.03;;;8.80;99.90;;;;;;5075578;28;20475;-70
2022/02/09 08:42:50;;;;;;;15.20;8.33;;;8.80;99.90;;;;;;5076774;28;20433;-71
2022/02/09 08:45:36;;;;;;;12.23;7.17;;;8.80;99.90;;;;;;5087405;28;20832;-71
2022/02/09 08:48:22;;;;;;;17.27;7.97;;;8.80;99.90;;;;;;5071906;28;20441;-71
2022/02/09 08:51:09;;;;;;;13.83;8.37;;;8.80;99.90;;;;;;5078726;28;20400;-71
2022/02/09 08:53:55;;;;;;;17.10;9.30;;;8.80;99.90;;;;;;5084345;28;21270;-69
2022/02/09 08:56:41;;;;;;;14.57;8.30;;;8.90;99.90;;;;;;5081433;28;20469;-71
2022/02/09 08:59:28;;;;;;;10.77;7.97;;;8.90;99.90;;;;;;5075739;28;20457;-67
2022/02/09 09:02:16;;;;;;;8.83;7.40;;;8.90;99.90;;;;;;5083055;28;20429;-71
2022/02/09 09:05:11;;;;;;;15.20;7.73;;;8.90;99.90;;;;;;5078586;28;20430;-71
2022/02/09 09:08:13;;;;;;;17.70;7.70;;;9.00;99.90;;;;;;5064788;28;20506;-71
2022/02/09 10:00:53;;;;;;;14.03;5.93;;;9.60;99.90;;;;;;5075141;28;20423;-72
2022/02/09 10:03:36;;;;;;;10.23;5.60;;;9.70;99.90;;;;;;5086793;28;20481;-71
2022/02/09 10:35:27;;;;;;;6.80;4.13;;;11.00;99.90;;;;;;5060951;28;20445;-71
2022/02/09 10:38:21;;;;;;;6.10;4.33;;;11.30;99.90;;;;;;5084862;28;20422;-71
2022/02/09 10:41:15;;;;;;;6.50;4.57;;;11.60;99.90;;;;;;5091066;28;20409;-72
2022/02/09 10:44:06;;;;;;;4.37;3.53;;;11.80;99.90;;;;;;5080062;28;20430;-72
2022/02/09 10:46:53;;;;;;;7.10;4.13;;;11.90;99.90;;;;;;5078933;23;21178;-83
2022/02/09 10:49:39;;;;;;;6.27;4.50;;;12.00;99.90;;;;;;5056055;28;20463;-84
2022/02/09 10:52:35;;;;;;;5.87;4.40;;;12.20;99.90;;;;;;5070862;28;20446;-84
2022/02/09 10:55:30;;;;;;;5.10;4.07;;;12.50;99.90;;;;;;5061369;28;20412;-83
2022/02/09 10:58:20;;;;;;;7.30;4.73;;;12.80;99.90;;;;;;5058600;28;20414;-84
2022/02/09 11:01:05;;;;;;;7.93;3.80;;;13.00;99.90;;;;;;5063350;28;20504;-83
2022/02/09 11:03:51;;;;;;;5.47;3.30;;;13.10;99.90;;;;;;5064584;28;20442;-84
2022/02/09 11:06:39;;;;;;;3.67;2.90;;;13.30;99.90;;;;;;5042644;28;20814;-83
2022/02/09 11:09:25;;;;;;;6.73;3.13;;;13.40;99.90;;;;;;5067762;28;20520;-83
2022/02/09 11:12:11;;;;;;;7.03;3.17;;;13.50;99.90;;;;;;5060245;28;20450;-84
2022/02/09 11:14:57;;;;;;;5.20;3.30;;;13.80;99.90;;;;;;5071625;28;20400;-83
2022/02/09 11:17:47;;;;;;;6.30;4.40;;;13.90;99.90;;;;;;5058973;28;20924;-83
2022/02/09 11:20:53;;;;;;;5.17;2.83;;;14.10;99.90;;;;;;5063007;28;20393;-83
2022/02/09 11:23:40;;;;;;;6.50;2.90;;;14.10;99.90;;;;;;5064478;28;20419;-83
2022/02/09 11:26:39;;;;;;;7.67;3.27;;;13.90;99.90;;;;;;5057568;28;20864;-84
2022/02/09 11:29:37;;;;;;;6.50;2.97;;;13.90;99.90;;;;;;5069459;28;20507;-84
2022/02/09 11:32:32;;;;;;;6.67;2.80;;;13.90;99.90;;;;;;5069445;28;20471;-83
2022/02/09 11:35:25;;;;;;;6.23;3.53;;;14.00;99.90;;;;;;5065386;28;20438;-83
2022/02/09 11:38:26;;;;;;;10.93;3.57;;;14.10;99.90;;;;;;5058259;28;20567;-83
2022/02/09 11:41:16;;;;;;;5.80;3.00;;;14.20;99.90;;;;;;5062970;28;20621;-83
2022/02/09 11:44:08;;;;;;;6.80;2.40;;;14.40;99.90;;;;;;5063671;28;20947;-84
2022/02/09 11:47:19;;;;;;;8.13;3.00;;;14.30;99.30;;;;;;5044247;28;20466;-84
2022/02/09 11:50:37;;;;;;;10.00;3.20;;;14.20;99.90;;;;;;5068486;28;20571;-83
2022/02/09 12:09:12;;;;;;;6.87;2.60;;;13.90;99.90;;;;;;5057135;28;20428;-85
2022/02/09 12:12:02;;;;;;;13.80;3.63;;;14.00;99.90;;;;;;5064813;28;20425;-85
2022/02/09 12:14:59;;;;;;;5.33;2.30;;;14.10;99.90;;;;;;5062654;28;20445;-84
2022/02/09 12:18:03;;;;;;;6.73;2.50;;;14.20;99.90;;;;;;5070676;28;20789;-83
2022/02/09 12:21:01;;;;;;;7.87;2.87;;;14.20;99.90;;;;;;5073847;28;20481;-83
2022/02/09 12:23:48;;;;;;;9.03;2.37;;;14.30;99.90;;;;;;5067690;28;20410;-84
2022/02/09 12:26:33;;;;;;;8.60;2.40;;;14.40;99.90;;;;;;5064967;28;20489;-84
2022/02/09 12:29:20;;;;;;;7.63;2.07;;;14.50;99.90;;;;;;5068713;28;20473;-83
2022/02/09 12:32:24;;;;;;;9.13;2.90;;;14.70;99.90;;;;;;5056743;28;20434;-85
2022/02/09 12:35:13;;;;;;;3.90;2.33;;;14.80;95.60;;;;;;5074839;28;20532;-86
2022/02/09 12:37:59;;;;;;;5.90;2.67;;;14.80;95.80;;;;;;5072955;28;20428;-84
2022/02/09 12:40:45;;;;;;;4.33;2.47;;;14.90;95.40;;;;;;5052635;28;20497;-85
2022/02/09 12:43:53;;;;;;;7.90;2.80;;;15.10;95.40;;;;;;5065406;28;20842;-84
2022/02/09 12:46:42;;;;;;;8.03;2.93;;;15.20;93.60;;;;;;5061583;28;20484;-84
2022/02/09 12:49:32;;;;;;;6.47;2.70;;;15.30;92.30;;;;;;5059091;28;21172;-85
2022/02/09 12:52:26;;;;;;;5.60;2.57;;;15.40;93.00;;;;;;5073620;28;20410;-81
2022/02/09 12:55:16;;;;;;;5.13;2.03;;;15.60;92.10;;;;;;5062168;28;20418;-82
2022/02/09 12:58:07;;;;;;;6.10;2.50;;;15.80;87.10;;;;;;5061537;28;20811;-85
2022/02/09 13:00:57;;;;;;;7.40;2.97;;;15.70;86.70;;;;;;5063667;28;20436;-82
2022/02/09 13:03:44;;;;;;;6.97;2.87;;;15.60;83.00;;;;;;5061275;28;20795;-84
2022/02/09 13:06:30;;;;;;;9.57;3.53;;;15.60;85.30;;;;;;5057608;28;20533;-82
2022/02/09 13:09:18;;;;;;;5.80;2.80;;;15.60;82.60;;;;;;5061239;28;20456;-84
2022/02/09 13:12:06;;;;;;;4.40;2.50;;;15.70;80.60;;;;;;5058726;28;20780;-85
2022/02/09 13:14:53;;;;;;;10.70;3.50;;;15.80;83.40;;;;;;5066614;28;20428;-85
2022/02/09 13:18:11;;;;;;;7.70;2.43;;;16.00;83.50;;;;;;5079977;28;20966;-85
2022/02/09 13:24:33;;;;;;;5.77;2.87;;;15.90;77.30;;;;;;5061204;28;20946;-84
2022/02/09 14:11:11;;;;;;;12.00;3.83;;;16.90;64.30;;;;;;5060453;28;20468;-72
2022/02/09 14:14:09;;;;;;;6.33;3.07;;;16.70;65.40;;;;;;5068992;28;20467;-72
2022/02/09 14:17:08;;;;;;;5.93;2.50;;;16.70;66.10;;;;;;5075422;28;20788;-71
2022/02/09 14:53:58;;;;;;;11.23;3.17;;;13.70;84.00;;;;;;5074941;28;21841;-72
2022/02/09 14:56:57;;;;;;;7.83;4.27;;;13.50;86.60;;;;;;5073828;28;20437;-73
2022/02/09 14:59:51;;;;;;;8.47;3.70;;;13.50;87.60;;;;;;5056333;28;20555;-72
2022/02/09 15:02:51;;;;;;;7.80;2.93;;;13.40;88.20;;;;;;5068190;28;20436;-72
2022/02/09 15:06:08;;;;;;;7.20;3.57;;;13.30;89.10;;;;;;5068374;28;20467;-72
2022/02/09 15:09:03;;;;;;;10.87;4.50;;;13.30;90.10;;;;;;5055081;28;20447;-72
2022/02/09 15:12:03;;;;;;;13.20;4.30;;;13.20;90.80;;;;;;5066964;28;20475;-72
2022/02/09 15:15:04;;;;;;;9.40;5.50;;;13.10;91.40;;;;;;5077379;28;20960;-72
2022/02/09 15:18:16;;;;;;;13.47;5.30;;;13.10;91.00;;;;;;5059891;28;20542;-72
2022/02/09 15:21:17;;;;;;;10.23;5.37;;;13.00;91.40;;;;;;5053893;28;20402;-72
2022/02/09 15:24:05;;;;;;;8.00;3.37;;;13.00;91.30;;;;;;5054398;28;20445;-72
2022/02/09 15:26:54;;;;;;;22.30;8.60;;;12.90;92.80;;;;;;5051819;28;20514;-72
2022/02/09 15:29:40;;;;;;;18.10;5.07;;;12.70;93.40;;;;;;5050403;28;20419;-72
2022/02/09 15:32:33;;;;;;;33.03;10.43;;;12.70;95.20;;;;;;5054220;28;20429;-72
2022/02/09 15:35:24;;;;;;;119.80;28.60;;;12.60;98.30;;;;;;5054853;28;20750;-72
2022/02/09 15:38:14;;;;;;;38.43;13.17;;;12.40;99.90;;;;;;5045866;28;20481;-71
2022/02/09 15:41:12;;;;;;;26.80;11.57;;;12.30;99.90;;;;;;5046723;28;20965;-72
2022/02/09 15:56:23;;;;;;;7.50;4.07;;;11.50;99.90;;;;;;5056562;28;20885;-72
2022/02/09 15:59:34;;;;;;;11.37;4.20;;;11.40;99.90;;;;;;5039202;28;20463;-72
2022/02/09 16:05:44;;;;;;;13.27;3.00;;;11.10;99.90;;;;;;5051011;28;20426;-72
2022/02/09 16:16:26;;;;;;;6.00;3.17;;;10.90;99.90;;;;;;5047729;28;20435;-70
2022/02/09 16:24:01;;;;;;;8.43;4.03;;;10.60;99.90;;;;;;5040064;28;20514;-73
2022/02/09 16:33:17;;;;;;;6.50;3.10;;;10.20;99.90;;;;;;5049977;28;20458;-72
2022/02/09 16:45:23;;;;;;;4.93;2.97;;;10.00;99.90;;;;;;5046362;28;20455;-71
2022/02/09 16:48:09;;;;;;;13.30;7.23;;;9.70;99.90;;;;;;5042173;28;20483;-72
2022/02/09 16:50:56;;;;;;;7.70;3.00;;;9.70;99.90;;;;;;5039991;28;20954;-72
2022/02/09 16:53:56;;;;;;;7.00;2.80;;;9.60;99.90;;;;;;5047991;28;20572;-72
2022/02/09 16:57:00;;;;;;;12.87;3.20;;;9.50;99.90;;;;;;5040665;28;20559;-72
2022/02/09 17:21:13;;;;;;;8.43;2.60;;;8.60;99.90;;;;;;5047878;28;20429;-71
2022/02/09 17:24:01;;;;;;;8.80;4.43;;;8.60;99.90;;;;;;5041797;28;20854;-72
2022/02/09 17:26:47;;;;;;;11.60;5.40;;;8.60;99.90;;;;;;5045484;28;20479;-73
2022/02/09 17:29:46;;;;;;;7.97;3.13;;;8.50;99.90;;;;;;5044892;28;20509;-72
2022/02/09 17:32:45;;;;;;;4.40;2.77;;;8.40;99.90;;;;;;5048961;28;20830;-72
2022/02/09 17:35:37;;;;;;;4.33;2.70;;;8.40;99.90;;;;;;5045956;28;20426;-72
2022/02/09 17:38:35;;;;;;;17.97;6.77;;;8.30;99.90;;;;;;5040210;28;20526;-72
2022/02/09 17:53:36;;;;;;;8.27;3.20;;;7.90;99.90;;;;;;5046265;28;21067;-70
2022/02/09 17:56:25;;;;;;;4.10;2.50;;;7.80;99.90;;;;;;5044722;28;20951;-72
2022/02/09 17:59:15;;;;;;;8.50;3.40;;;7.80;99.90;;;;;;5045568;28;20471;-73
2022/02/09 18:02:00;;;;;;;6.20;2.47;;;7.80;99.90;;;;;;5045765;28;20966;-72
2022/02/09 18:04:46;;;;;;;4.60;2.50;;;7.70;99.90;;;;;;5043288;28;20450;-72
2022/02/09 18:07:35;;;;;;;4.33;2.53;;;7.60;99.90;;;;;;5040342;28;20470;-72
2022/02/09 18:10:45;;;;;;;4.43;2.20;;;7.60;99.90;;;;;;5028711;28;21024;-72
2022/02/09 18:26:17;;;;;;;8.73;3.87;;;7.30;99.90;;;;;;5046433;28;20804;-72
2022/02/09 18:29:02;;;;;;;5.40;2.40;;;7.40;99.90;;;;;;5045578;28;20471;-72
2022/02/09 18:32:13;;;;;;;5.50;3.00;;;7.40;99.90;;;;;;5046545;28;20406;-72
2022/02/09 18:38:22;;;;;;;4.93;2.80;;;7.40;99.90;;;;;;5040847;28;21035;-72
2022/02/09 18:44:24;;;;;;;6.60;2.60;;;7.10;99.90;;;;;;5046437;28;20837;-72
2022/02/09 18:47:42;;;;;;;3.80;2.07;;;7.10;99.90;;;;;;5039939;28;20474;-71
2022/02/09 18:59:58;;;;;;;7.90;2.67;;;6.90;99.90;;;;;;5053165;28;20475;-71
2022/02/09 19:02:56;;;;;;;4.50;2.73;;;6.90;99.90;;;;;;5049908;28;20462;-71
2022/02/09 19:05:45;;;;;;;5.60;2.83;;;6.80;99.90;;;;;;5048531;28;20467;-71
2022/02/09 19:08:52;;;;;;;3.70;2.60;;;6.80;99.90;;;;;;5038184;28;20491;-72
2022/02/09 19:14:50;;;;;;;6.07;2.60;;;6.70;99.90;;;;;;5048490;28;20466;-72
2022/02/09 19:17:46;;;;;;;5.70;2.83;;;6.60;99.90;;;;;;5040447;28;20473;-72
2022/02/09 19:20:44;;;;;;;7.93;2.60;;;6.40;99.90;;;;;;5045108;28;20454;-72
2022/02/09 19:26:50;;;;;;;5.50;2.83;;;6.30;99.90;;;;;;5047458;28;20565;-72
2022/02/09 19:48:16;;;;;;;7.10;3.07;;;6.20;99.90;;;;;;5008180;28;20962;-72
2022/02/09 19:51:12;;;;;;;4.10;2.83;;;6.30;99.90;;;;;;5049446;28;20573;-72
2022/02/09 19:54:07;;;;;;;6.13;3.17;;;6.20;99.90;;;;;;5047991;28;20454;-72
2022/02/09 19:57:01;;;;;;;4.00;2.87;;;6.20;99.90;;;;;;5047115;28;20467;-72
2022/02/09 19:59:48;;;;;;;5.20;3.30;;;6.20;99.90;;;;;;5049180;28;20455;-72
2022/02/09 20:02:36;;;;;;;5.50;3.77;;;6.20;99.90;;;;;;5046710;28;20433;-72
2022/02/09 20:05:22;;;;;;;5.63;3.53;;;6.20;99.90;;;;;;5046339;28;20784;-72
2022/02/09 20:08:08;;;;;;;9.00;4.00;;;6.20;99.90;;;;;;5049616;28;20446;-72
2022/02/09 20:10:55;;;;;;;5.43;3.38;;;6.10;99.90;;;;;;5046099;28;20569;-71
2022/02/09 20:13:41;;;;;;;9.83;3.67;;;6.10;99.90;;;;;;5045434;28;20262;-72
2022/02/09 20:16:26;;;;;;;4.37;3.00;;;6.00;99.90;;;;;;5044523;28;20857;-71
2022/02/09 20:19:13;;;;;;;5.10;3.90;;;6.00;99.90;;;;;;5042860;23;20466;-85
2022/02/09 20:22:00;;;;;;;8.73;4.17;;;5.90;99.90;;;;;;5030600;28;20460;-86
2022/02/09 20:24:46;;;;;;;9.00;5.83;;;5.80;99.90;;;;;;5017102;28;21064;-85
2022/02/09 20:27:34;;;;;;;7.10;5.30;;;5.80;99.90;;;;;;5031707;28;20565;-84
2022/02/09 20:30:23;;;;;;;8.60;5.57;;;5.70;99.90;;;;;;5013203;28;20495;-85
2022/02/09 20:33:13;;;;;;;10.57;5.77;;;5.70;99.90;;;;;;5060820;22;20867;-72
2022/02/09 20:36:02;;;;;;;9.63;5.60;;;5.60;99.90;;;;;;5065515;28;20861;-71
2022/02/09 20:38:53;;;;;;;7.40;5.30;;;5.70;99.90;;;;;;5066232;28;20470;-71
2022/02/09 20:41:39;;;;;;;19.67;9.90;;;5.50;99.90;;;;;;5060531;28;20453;-71
2022/02/09 20:44:31;;;;;;;10.10;7.53;;;5.50;99.90;;;;;;5058357;28;20457;-70
2022/02/09 20:47:16;;;;;;;10.13;7.37;;;5.50;99.90;;;;;;5052382;28;20230;-72
2022/02/09 20:50:02;;;;;;;11.97;7.90;;;5.60;99.90;;;;;;5069712;28;20442;-72
2022/02/09 20:52:49;;;;;;;8.70;7.13;;;5.60;99.90;;;;;;5059711;28;20447;-73
2022/02/09 20:55:35;;;;;;;13.40;7.00;;;5.70;99.90;;;;;;5061240;28;20548;-72
2022/02/09 20:58:22;;;;;;;13.90;6.97;;;5.60;99.90;;;;;;5066552;28;20531;-73
2022/02/09 21:01:11;;;;;;;8.57;5.97;;;5.60;99.90;;;;;;5062876;28;20469;-74
2022/02/09 21:04:02;;;;;;;13.00;5.97;;;5.50;99.90;;;;;;5057840;28;20843;-72
2022/02/09 21:07:08;;;;;;;11.13;7.77;;;5.40;99.90;;;;;;5061496;28;20446;-73
2022/02/09 21:10:05;;;;;;;10.73;7.00;;;5.40;99.90;;;;;;5049284;28;20614;-73
2022/02/09 21:12:56;;;;;;;7.50;5.30;;;5.30;99.90;;;;;;5056157;28;20976;-73
2022/02/09 21:15:53;;;;;;;7.13;4.67;;;5.30;99.90;;;;;;5067217;28;20405;-74
2022/02/09 21:52:58;;;;;;;5.85;3.85;;;5.10;99.90;;;;;;5002572;28;20489;-72
2022/02/09 21:55:54;;;;;;;9.77;3.67;;;5.00;99.90;;;;;;5064071;28;20704;-74
2022/02/09 21:58:46;;;;;;;6.97;3.78;;;5.00;99.90;;;;;;5066587;28;20540;-74
2022/02/09 22:01:54;;;;;;;6.82;3.88;;;4.90;99.90;;;;;;5048600;28;20211;-74
2022/02/09 22:19:14;;;;;;;8.77;4.30;;;4.90;99.90;;;;;;5071651;28;20950;-72
2022/02/09 22:20:16;;;;;;;9.30;4.43;;;4.80;99.90;;;;;;5065057;28;20492;-71
2022/02/09 22:23:26;;;;;;;5.73;3.60;;;4.90;99.90;;;;;;5069494;28;20202;-73
2022/02/09 22:29:50;;;;;;;4.87;3.70;;;4.70;99.90;;;;;;5012602;28;20750;-74
2022/02/09 22:48:17;;;;;;;6.63;4.40;;;4.50;99.90;;;;;;5062439;28;20208;-74
2022/02/09 22:57:05;;;;;;;7.13;4.20;;;4.40;99.90;;;;;;5071927;28;20461;-74
2022/02/09 23:00:00;;;;;;;8.43;5.35;;;4.40;99.90;;;;;;5067471;28;20601;-72
2022/02/09 23:02:52;;;;;;;10.70;6.68;;;4.30;99.90;;;;;;5063617;28;20196;-74
2022/02/09 23:05:51;;;;;;;8.93;7.43;;;4.30;99.90;;;;;;5068611;28;20269;-73
2022/02/09 23:09:16;;;;;;;12.45;7.60;;;4.20;99.90;;;;;;5067388;28;20482;-73
2022/02/09 23:12:12;;;;;;;13.00;6.90;;;4.10;99.90;;;;;;5065071;28;20213;-74
2022/02/09 23:15:16;;;;;;;9.98;8.05;;;4.20;99.90;;;;;;5065069;28;20813;-72
2022/02/09 23:24:30;;;;;;;18.17;8.15;;;4.00;99.90;;;;;;5053521;28;20208;-74
2022/02/09 23:58:13;;;;;;;11.18;7.35;;;4.00;99.90;;;;;;5066395;28;20422;-73
